sensor_id;sensor_type;location;lat;lon;timestamp;P1;durP1;ratioP1;P2;durP2;ratioP2
22673;SDS011;11504;43.334;21.918;2023-03-31T00:02:52;27.0;;;26.0;;
22673;SDS011;11504;43.334;21.918;2023-03-31T00:07:30;25.0;;;24.0;;
22673;SDS011;11504;43.334;21.918;2023-03-31T00:12:07;25.0;;;24.0;;
22673;SDS011;11504;43.334;21.918;2023-03-31T00:16:45;23.0;;;22.0;;
22673;SDS011;11504;43.334;21.918;2023-03-31T00:21:23;23.0;;;22.0;;
22673;SDS011;11504;43.334;21.918;2023-03-31T00:26:00;20.0;;;20.0;;
22673;SDS011;11504;43.334;21.918;2023-03-31T00:30:37;20.0;;;20.0;;
22673;SDS011;11504;43.334;21.918;2023-03-31T00:35:15;18.0;;;17.0;;
22673;SDS011;11504;43.334;21.918;2023-03-31T00:39:52;18.0;;;17.0;;
22673;SDS011;11504;43.334;21.918;2023-03-31T00:44:30;19.0;;;18.0;;
22673;SDS011;11504;43.334;21.918;2023-03-31T00:49:15;19.0;;;18.0;;
22673;SDS011;11504;43.334;21.918;2023-03-31T00:54:06;20.0;;;19.0;;
22673;SDS011;11504;43.334;21.918;2023-03-31T00:58:44;20.0;;;19.0;;
22673;SDS011;11504;43.334;21.918;2023-03-31T01:03:20;20.0;;;18.0;;
22673;SDS011;11504;43.334;21.918;2023-03-31T01:07:59;20.0;;;18.0;;
22673;SDS011;11504;43.334;21.918;2023-03-31T01:12:43;20.0;;;18.0;;
22673;SDS011;11504;43.334;21.918;2023-03-31T01:17:25;19.0;;;18.0;;
22673;SDS011;11504;43.334;21.918;2023-03-31T01:22:27;19.0;;;18.0;;
22673;SDS011;11504;43.334;21.918;2023-03-31T01:28:55;16.0;;;16.0;;
22673;SDS011;11504;43.334;21.918;2023-03-31T01:34:59;14.0;;;14.0;;
22673;SDS011;11504;43.334;21.918;2023-03-31T01:41:13;14.0;;;14.0;;
22673;SDS011;11504;43.334;21.918;2023-03-31T01:46:34;18.0;;;18.0;;
22673;SDS011;11504;43.334;21.918;2023-03-31T01:51:45;18.0;;;18.0;;
22673;SDS011;11504;43.334;21.918;2023-03-31T01:56:51;22.0;;;21.0;;
22673;SDS011;11504;43.334;21.918;2023-03-31T02:01:58;22.0;;;21.0;;
22673;SDS011;11504;43.334;21.918;2023-03-31T02:07:03;22.0;;;20.0;;
22673;SDS011;11504;43.334;21.918;2023-03-31T02:12:01;22.0;;;20.0;;
22673;SDS011;11504;43.334;21.918;2023-03-31T02:16:49;21.0;;;20.0;;
22673;SDS011;11504;43.334;21.918;2023-03-31T02:21:38;21.0;;;20.0;;
22673;SDS011;11504;43.334;21.918;2023-03-31T02:26:22;19.0;;;18.0;;
22673;SDS011;11504;43.334;21.918;2023-03-31T02:31:25;19.0;;;18.0;;
22673;SDS011;11504;43.334;21.918;2023-03-31T02:36:23;17.0;;;15.0;;
22673;SDS011;11504;43.334;21.918;2023-03-31T02:41:00;17.0;;;15.0;;
22673;SDS011;11504;43.334;21.918;2023-03-31T02:45:41;17.0;;;16.0;;
22673;SDS011;11504;43.334;21.918;2023-03-31T02:50:31;17.0;;;16.0;;
22673;SDS011;11504;43.334;21.918;2023-03-31T02:56:33;17.0;;;16.0;;
22673;SDS011;11504;43.334;21.918;2023-03-31T03:02:42;17.0;;;16.0;;
22673;SDS011;11504;43.334;21.918;2023-03-31T03:08:28;18.0;;;17.0;;
22673;SDS011;11504;43.334;21.918;2023-03-31T03:14:26;19.0;;;18.0;;
22673;SDS011;11504;43.334;21.918;2023-03-31T03:19:27;19.0;;;18.0;;
22673;SDS011;11504;43.334;21.918;2023-03-31T03:24:05;18.0;;;16.0;;
22673;SDS011;11504;43.334;21.918;2023-03-31T03:28:44;18.0;;;16.0;;
22673;SDS011;11504;43.334;21.918;2023-03-31T03:33:20;18.0;;;16.0;;
22673;SDS011;11504;43.334;21.918;2023-03-31T03:37:57;16.0;;;15.0;;
22673;SDS011;11504;43.334;21.918;2023-03-31T03:42:34;16.0;;;15.0;;
22673;SDS011;11504;43.334;21.918;2023-03-31T03:47:11;14.0;;;13.0;;
22673;SDS011;11504;43.334;21.918;2023-03-31T03:51:47;14.0;;;13.0;;
22673;SDS011;11504;43.334;21.918;2023-03-31T03:56:23;12.0;;;11.0;;
22673;SDS011;11504;43.334;21.918;2023-03-31T04:01:00;12.0;;;11.0;;
22673;SDS011;11504;43.334;21.918;2023-03-31T04:05:37;13.0;;;12.0;;
22673;SDS011;11504;43.334;21.918;2023-03-31T04:10:14;13.0;;;12.0;;
22673;SDS011;11504;43.334;21.918;2023-03-31T04:14:51;14.0;;;13.0;;
22673;SDS011;11504;43.334;21.918;2023-03-31T04:19:28;14.0;;;13.0;;
22673;SDS011;11504;43.334;21.918;2023-03-31T04:24:05;16.0;;;14.0;;
22673;SDS011;11504;43.334;21.918;2023-03-31T04:28:44;16.0;;;14.0;;
22673;SDS011;11504;43.334;21.918;2023-03-31T04:33:21;16.0;;;14.0;;
22673;SDS011;11504;43.334;21.918;2023-03-31T04:37:57;17.0;;;16.0;;
22673;SDS011;11504;43.334;21.918;2023-03-31T04:42:34;17.0;;;16.0;;
22673;SDS011;11504;43.334;21.918;2023-03-31T04:47:11;21.0;;;20.0;;
22673;SDS011;11504;43.334;21.918;2023-03-31T04:51:47;21.0;;;20.0;;
22673;SDS011;11504;43.334;21.918;2023-03-31T04:56:23;25.0;;;23.0;;
22673;SDS011;11504;43.334;21.918;2023-03-31T05:00:59;25.0;;;23.0;;
22673;SDS011;11504;43.334;21.918;2023-03-31T05:05:36;28.0;;;25.0;;
22673;SDS011;11504;43.334;21.918;2023-03-31T05:10:13;28.0;;;25.0;;
22673;SDS011;11504;43.334;21.918;2023-03-31T05:14:49;30.0;;;27.0;;
22673;SDS011;11504;43.334;21.918;2023-03-31T05:19:25;30.0;;;27.0;;
22673;SDS011;11504;43.334;21.918;2023-03-31T05:24:02;40.0;;;34.0;;
22673;SDS011;11504;43.334;21.918;2023-03-31T05:28:40;40.0;;;34.0;;
22673;SDS011;11504;43.334;21.918;2023-03-31T05:33:19;40.0;;;34.0;;
22673;SDS011;11504;43.334;21.918;2023-03-31T05:37:56;51.0;;;42.0;;
22673;SDS011;11504;43.334;21.918;2023-03-31T05:42:32;51.0;;;42.0;;
22673;SDS011;11504;43.334;21.918;2023-03-31T05:47:10;42.0;;;34.0;;
22673;SDS011;11504;43.334;21.918;2023-03-31T05:51:49;42.0;;;34.0;;
22673;SDS011;11504;43.334;21.918;2023-03-31T05:56:26;32.0;;;27.0;;
22673;SDS011;11504;43.334;21.918;2023-03-31T06:01:07;32.0;;;27.0;;
22673;SDS011;11504;43.334;21.918;2023-03-31T06:05:52;28.0;;;25.0;;
22673;SDS011;11504;43.334;21.918;2023-03-31T06:10:28;28.0;;;25.0;;
22673;SDS011;11504;43.334;21.918;2023-03-31T06:15:06;24.0;;;23.0;;
22673;SDS011;11504;43.334;21.918;2023-03-31T06:19:44;24.0;;;23.0;;
22673;SDS011;11504;43.334;21.918;2023-03-31T06:24:20;21.0;;;20.0;;
22673;SDS011;11504;43.334;21.918;2023-03-31T06:28:57;21.0;;;20.0;;
22673;SDS011;11504;43.334;21.918;2023-03-31T06:33:34;21.0;;;20.0;;
22673;SDS011;11504;43.334;21.918;2023-03-31T06:38:11;18.0;;;16.0;;
22673;SDS011;11504;43.334;21.918;2023-03-31T06:42:47;18.0;;;16.0;;
22673;SDS011;11504;43.334;21.918;2023-03-31T06:47:24;22.0;;;18.0;;
22673;SDS011;11504;43.334;21.918;2023-03-31T06:52:00;22.0;;;18.0;;
22673;SDS011;11504;43.334;21.918;2023-03-31T06:56:37;25.0;;;21.0;;
22673;SDS011;11504;43.334;21.918;2023-03-31T07:01:13;25.0;;;21.0;;
22673;SDS011;11504;43.334;21.918;2023-03-31T07:05:52;22.0;;;19.0;;
22673;SDS011;11504;43.334;21.918;2023-03-31T07:10:31;22.0;;;19.0;;
22673;SDS011;11504;43.334;21.918;2023-03-31T07:15:09;19.0;;;17.0;;
22673;SDS011;11504;43.334;21.918;2023-03-31T07:19:46;19.0;;;17.0;;
22673;SDS011;11504;43.334;21.918;2023-03-31T07:24:22;25.0;;;22.0;;
22673;SDS011;11504;43.334;21.918;2023-03-31T07:28:59;25.0;;;22.0;;
22673;SDS011;11504;43.334;21.918;2023-03-31T07:33:35;25.0;;;22.0;;
22673;SDS011;11504;43.334;21.918;2023-03-31T07:38:12;31.0;;;28.0;;
22673;SDS011;11504;43.334;21.918;2023-03-31T07:42:50;31.0;;;28.0;;
22673;SDS011;11504;43.334;21.918;2023-03-31T07:47:28;31.0;;;28.0;;
22673;SDS011;11504;43.334;21.918;2023-03-31T07:52:04;31.0;;;28.0;;
22673;SDS011;11504;43.334;21.918;2023-03-31T08:24:25;10.0;;;9.0;;
22673;SDS011;11504;43.334;21.918;2023-03-31T08:29:02;10.0;;;9.0;;
22673;SDS011;11504;43.334;21.918;2023-03-31T08:33:39;10.0;;;9.0;;
22673;SDS011;11504;43.334;21.918;2023-03-31T08:38:16;10.0;;;9.0;;
22673;SDS011;11504;43.334;21.918;2023-03-31T08:43:15;10.0;;;9.0;;
22673;SDS011;11504;43.334;21.918;2023-03-31T08:48:29;14.0;;;14.0;;
22673;SDS011;11504;43.334;21.918;2023-03-31T08:53:29;14.0;;;14.0;;
22673;SDS011;11504;43.334;21.918;2023-03-31T08:58:37;19.0;;;18.0;;
22673;SDS011;11504;43.334;21.918;2023-03-31T09:03:43;19.0;;;18.0;;
22673;SDS011;11504;43.334;21.918;2023-03-31T09:08:35;20.0;;;18.0;;
22673;SDS011;11504;43.334;21.918;2023-03-31T09:14:04;20.0;;;19.0;;
22673;SDS011;11504;43.334;21.918;2023-03-31T09:18:58;20.0;;;19.0;;
22673;SDS011;11504;43.334;21.918;2023-03-31T09:23:45;20.0;;;19.0;;
22673;SDS011;11504;43.334;21.918;2023-03-31T09:28:38;20.0;;;19.0;;
22673;SDS011;11504;43.334;21.918;2023-03-31T09:33:25;20.0;;;19.0;;
22673;SDS011;11504;43.334;21.918;2023-03-31T09:38:05;20.0;;;19.0;;
22673;SDS011;11504;43.334;21.918;2023-03-31T09:42:57;20.0;;;19.0;;
22673;SDS011;11504;43.334;21.918;2023-03-31T09:47:44;18.0;;;17.0;;
22673;SDS011;11504;43.334;21.918;2023-03-31T09:52:32;18.0;;;17.0;;
22673;SDS011;11504;43.334;21.918;2023-03-31T09:57:28;16.0;;;15.0;;
22673;SDS011;11504;43.334;21.918;2023-03-31T10:02:35;16.0;;;15.0;;
22673;SDS011;11504;43.334;21.918;2023-03-31T10:07:22;14.0;;;14.0;;
22673;SDS011;11504;43.334;21.918;2023-03-31T10:12:14;14.0;;;14.0;;
22673;SDS011;11504;43.334;21.918;2023-03-31T10:16:56;12.0;;;12.0;;
22673;SDS011;11504;43.334;21.918;2023-03-31T10:21:39;12.0;;;12.0;;
22673;SDS011;11504;43.334;21.918;2023-03-31T10:26:20;12.0;;;11.0;;
22673;SDS011;11504;43.334;21.918;2023-03-31T10:31:00;12.0;;;11.0;;
22673;SDS011;11504;43.334;21.918;2023-03-31T10:35:38;11.0;;;10.0;;
22673;SDS011;11504;43.334;21.918;2023-03-31T10:40:23;11.0;;;10.0;;
22673;SDS011;11504;43.334;21.918;2023-03-31T10:45:25;10.0;;;10.0;;
22673;SDS011;11504;43.334;21.918;2023-03-31T10:50:14;10.0;;;10.0;;
22673;SDS011;11504;43.334;21.918;2023-03-31T10:54:58;9.0;;;9.0;;
22673;SDS011;11504;43.334;21.918;2023-03-31T11:00:04;9.0;;;9.0;;
22673;SDS011;11504;43.334;21.918;2023-03-31T11:05:30;10.0;;;9.0;;
22673;SDS011;11504;43.334;21.918;2023-03-31T11:11:03;10.0;;;9.0;;
22673;SDS011;11504;43.334;21.918;2023-03-31T11:16:28;10.0;;;9.0;;
22673;SDS011;11504;43.334;21.918;2023-03-31T11:21:46;10.0;;;9.0;;
22673;SDS011;11504;43.334;21.918;2023-03-31T11:27:07;10.0;;;8.0;;
22673;SDS011;11504;43.334;21.918;2023-03-31T11:32:45;10.0;;;8.0;;
22673;SDS011;11504;43.334;21.918;2023-03-31T11:37:56;9.0;;;8.0;;
22673;SDS011;11504;43.334;21.918;2023-03-31T11:42:54;9.0;;;8.0;;
22673;SDS011;11504;43.334;21.918;2023-03-31T11:47:40;9.0;;;8.0;;
22673;SDS011;11504;43.334;21.918;2023-03-31T11:52:29;9.0;;;8.0;;
22673;SDS011;11504;43.334;21.918;2023-03-31T11:57:18;9.0;;;8.0;;
22673;SDS011;11504;43.334;21.918;2023-03-31T12:02:15;9.0;;;8.0;;
22673;SDS011;11504;43.334;21.918;2023-03-31T12:07:07;10.0;;;10.0;;
22673;SDS011;11504;43.334;21.918;2023-03-31T12:12:14;10.0;;;10.0;;
22673;SDS011;11504;43.334;21.918;2023-03-31T12:17:10;11.0;;;11.0;;
22673;SDS011;11504;43.334;21.918;2023-03-31T12:22:03;11.0;;;11.0;;
22673;SDS011;11504;43.334;21.918;2023-03-31T12:27:11;11.0;;;11.0;;
22673;SDS011;11504;43.334;21.918;2023-03-31T12:32:02;11.0;;;11.0;;
22673;SDS011;11504;43.334;21.918;2023-03-31T12:49:33;10.0;;;9.0;;
22673;SDS011;11504;43.334;21.918;2023-03-31T12:54:56;10.0;;;9.0;;
22673;SDS011;11504;43.334;21.918;2023-03-31T13:00:33;10.0;;;9.0;;
22673;SDS011;11504;43.334;21.918;2023-03-31T13:06:57;8.0;;;7.0;;
22673;SDS011;11504;43.334;21.918;2023-03-31T13:11:41;8.0;;;7.0;;
22673;SDS011;11504;43.334;21.918;2023-03-31T13:16:21;7.0;;;5.0;;
22673;SDS011;11504;43.334;21.918;2023-03-31T13:21:00;7.0;;;5.0;;
22673;SDS011;11504;43.334;21.918;2023-03-31T13:25:49;7.0;;;6.0;;
22673;SDS011;11504;43.334;21.918;2023-03-31T13:30:52;7.0;;;6.0;;
22673;SDS011;11504;43.334;21.918;2023-03-31T13:35:39;7.0;;;6.0;;
22673;SDS011;11504;43.334;21.918;2023-03-31T13:41:00;7.0;;;6.0;;
22673;SDS011;11504;43.334;21.918;2023-03-31T13:46:50;8.0;;;6.0;;
22673;SDS011;11504;43.334;21.918;2023-03-31T13:54:16;8.0;;;7.0;;
22673;SDS011;11504;43.334;21.918;2023-03-31T14:00:31;8.0;;;7.0;;
22673;SDS011;11504;43.334;21.918;2023-03-31T14:06:24;8.0;;;8.0;;
22673;SDS011;11504;43.334;21.918;2023-03-31T14:11:24;8.0;;;8.0;;
22673;SDS011;11504;43.334;21.918;2023-03-31T14:16:05;8.0;;;8.0;;
22673;SDS011;11504;43.334;21.918;2023-03-31T14:21:04;8.0;;;8.0;;
22673;SDS011;11504;43.334;21.918;2023-03-31T14:26:02;10.0;;;9.0;;
22673;SDS011;11504;43.334;21.918;2023-03-31T14:31:02;10.0;;;9.0;;
22673;SDS011;11504;43.334;21.918;2023-03-31T14:36:03;11.0;;;10.0;;
22673;SDS011;11504;43.334;21.918;2023-03-31T14:40:52;11.0;;;10.0;;
22673;SDS011;11504;43.334;21.918;2023-03-31T14:45:30;10.0;;;8.0;;
22673;SDS011;11504;43.334;21.918;2023-03-31T14:50:16;10.0;;;8.0;;
22673;SDS011;11504;43.334;21.918;2023-03-31T14:54:54;8.0;;;7.0;;
22673;SDS011;11504;43.334;21.918;2023-03-31T14:59:34;8.0;;;7.0;;
22673;SDS011;11504;43.334;21.918;2023-03-31T15:04:18;10.0;;;8.0;;
22673;SDS011;11504;43.334;21.918;2023-03-31T15:09:03;10.0;;;8.0;;
22673;SDS011;11504;43.334;21.918;2023-03-31T15:13:44;10.0;;;8.0;;
22673;SDS011;11504;43.334;21.918;2023-03-31T15:18:26;11.0;;;10.0;;
22673;SDS011;11504;43.334;21.918;2023-03-31T15:23:20;11.0;;;10.0;;
22673;SDS011;11504;43.334;21.918;2023-03-31T15:28:06;9.0;;;8.0;;
22673;SDS011;11504;43.334;21.918;2023-03-31T15:32:51;9.0;;;8.0;;
22673;SDS011;11504;43.334;21.918;2023-03-31T15:37:38;7.0;;;7.0;;
22673;SDS011;11504;43.334;21.918;2023-03-31T15:42:17;7.0;;;7.0;;
22673;SDS011;11504;43.334;21.918;2023-03-31T15:47:00;8.0;;;8.0;;
22673;SDS011;11504;43.334;21.918;2023-03-31T15:51:47;8.0;;;8.0;;
22673;SDS011;11504;43.334;21.918;2023-03-31T15:56:34;8.0;;;8.0;;
22673;SDS011;11504;43.334;21.918;2023-03-31T16:01:18;8.0;;;8.0;;
22673;SDS011;11504;43.334;21.918;2023-03-31T16:06:00;8.0;;;8.0;;
22673;SDS011;11504;43.334;21.918;2023-03-31T16:11:06;8.0;;;8.0;;
22673;SDS011;11504;43.334;21.918;2023-03-31T16:15:56;7.0;;;7.0;;
22673;SDS011;11504;43.334;21.918;2023-03-31T16:20:40;7.0;;;7.0;;
22673;SDS011;11504;43.334;21.918;2023-03-31T16:25:38;8.0;;;8.0;;
22673;SDS011;11504;43.334;21.918;2023-03-31T16:30:33;8.0;;;8.0;;
22673;SDS011;11504;43.334;21.918;2023-03-31T16:35:15;10.0;;;9.0;;
22673;SDS011;11504;43.334;21.918;2023-03-31T16:39:52;10.0;;;9.0;;
22673;SDS011;11504;43.334;21.918;2023-03-31T16:44:30;10.0;;;9.0;;
22673;SDS011;11504;43.334;21.918;2023-03-31T16:49:07;10.0;;;9.0;;
22673;SDS011;11504;43.334;21.918;2023-03-31T16:53:46;10.0;;;9.0;;
22673;SDS011;11504;43.334;21.918;2023-03-31T16:58:25;10.0;;;9.0;;
22673;SDS011;11504;43.334;21.918;2023-03-31T17:03:03;10.0;;;9.0;;
22673;SDS011;11504;43.334;21.918;2023-03-31T17:07:40;11.0;;;10.0;;
22673;SDS011;11504;43.334;21.918;2023-03-31T17:12:16;11.0;;;10.0;;
22673;SDS011;11504;43.334;21.918;2023-03-31T17:16:53;12.0;;;10.0;;
22673;SDS011;11504;43.334;21.918;2023-03-31T17:21:29;12.0;;;10.0;;
22673;SDS011;11504;43.334;21.918;2023-03-31T17:26:08;12.0;;;11.0;;
22673;SDS011;11504;43.334;21.918;2023-03-31T17:30:48;12.0;;;11.0;;
22673;SDS011;11504;43.334;21.918;2023-03-31T17:35:25;12.0;;;12.0;;
22673;SDS011;11504;43.334;21.918;2023-03-31T17:40:01;12.0;;;12.0;;
22673;SDS011;11504;43.334;21.918;2023-03-31T17:44:39;12.0;;;11.0;;
22673;SDS011;11504;43.334;21.918;2023-03-31T17:49:15;12.0;;;11.0;;
22673;SDS011;11504;43.334;21.918;2023-03-31T17:53:52;12.0;;;11.0;;
22673;SDS011;11504;43.334;21.918;2023-03-31T17:58:29;11.0;;;10.0;;
22673;SDS011;11504;43.334;21.918;2023-03-31T18:03:07;11.0;;;10.0;;
22673;SDS011;11504;43.334;21.918;2023-03-31T18:07:43;10.0;;;10.0;;
22673;SDS011;11504;43.334;21.918;2023-03-31T18:12:20;10.0;;;10.0;;
22673;SDS011;11504;43.334;21.918;2023-03-31T18:16:56;10.0;;;9.0;;
22673;SDS011;11504;43.334;21.918;2023-03-31T18:21:32;10.0;;;9.0;;
22673;SDS011;11504;43.334;21.918;2023-03-31T18:26:11;10.0;;;10.0;;
22673;SDS011;11504;43.334;21.918;2023-03-31T18:30:48;10.0;;;10.0;;
22673;SDS011;11504;43.334;21.918;2023-03-31T18:35:24;11.0;;;10.0;;
22673;SDS011;11504;43.334;21.918;2023-03-31T18:40:00;11.0;;;10.0;;
22673;SDS011;11504;43.334;21.918;2023-03-31T18:44:36;10.0;;;10.0;;
22673;SDS011;11504;43.334;21.918;2023-03-31T18:49:13;10.0;;;10.0;;
22673;SDS011;11504;43.334;21.918;2023-03-31T18:53:50;10.0;;;10.0;;
22673;SDS011;11504;43.334;21.918;2023-03-31T18:58:29;10.0;;;10.0;;
22673;SDS011;11504;43.334;21.918;2023-03-31T19:03:07;10.0;;;10.0;;
22673;SDS011;11504;43.334;21.918;2023-03-31T19:07:44;10.0;;;10.0;;
22673;SDS011;11504;43.334;21.918;2023-03-31T19:12:20;10.0;;;10.0;;
22673;SDS011;11504;43.334;21.918;2023-03-31T19:16:57;10.0;;;9.0;;
22673;SDS011;11504;43.334;21.918;2023-03-31T19:21:33;10.0;;;9.0;;
22673;SDS011;11504;43.334;21.918;2023-03-31T19:26:16;10.0;;;8.0;;
22673;SDS011;11504;43.334;21.918;2023-03-31T19:30:56;10.0;;;8.0;;
22673;SDS011;11504;43.334;21.918;2023-03-31T19:35:39;9.0;;;8.0;;
22673;SDS011;11504;43.334;21.918;2023-03-31T19:40:18;9.0;;;8.0;;
22673;SDS011;11504;43.334;21.918;2023-03-31T19:44:55;9.0;;;8.0;;
22673;SDS011;11504;43.334;21.918;2023-03-31T19:49:31;9.0;;;8.0;;
22673;SDS011;11504;43.334;21.918;2023-03-31T19:54:09;9.0;;;8.0;;
22673;SDS011;11504;43.334;21.918;2023-03-31T19:58:46;9.0;;;8.0;;
22673;SDS011;11504;43.334;21.918;2023-03-31T20:03:25;9.0;;;8.0;;
22673;SDS011;11504;43.334;21.918;2023-03-31T20:08:01;10.0;;;10.0;;
22673;SDS011;11504;43.334;21.918;2023-03-31T20:12:38;10.0;;;10.0;;
22673;SDS011;11504;43.334;21.918;2023-03-31T20:17:14;12.0;;;11.0;;
22673;SDS011;11504;43.334;21.918;2023-03-31T20:21:52;12.0;;;11.0;;
22673;SDS011;11504;43.334;21.918;2023-03-31T20:26:32;12.0;;;10.0;;
22673;SDS011;11504;43.334;21.918;2023-03-31T20:31:15;12.0;;;10.0;;
22673;SDS011;11504;43.334;21.918;2023-03-31T20:36:01;11.0;;;10.0;;
22673;SDS011;11504;43.334;21.918;2023-03-31T20:40:44;11.0;;;10.0;;
22673;SDS011;11504;43.334;21.918;2023-03-31T20:45:21;10.0;;;10.0;;
22673;SDS011;11504;43.334;21.918;2023-03-31T20:49:58;10.0;;;10.0;;
22673;SDS011;11504;43.334;21.918;2023-03-31T20:54:35;10.0;;;9.0;;
22673;SDS011;11504;43.334;21.918;2023-03-31T20:59:14;10.0;;;9.0;;
22673;SDS011;11504;43.334;21.918;2023-03-31T21:03:51;10.0;;;9.0;;
22673;SDS011;11504;43.334;21.918;2023-03-31T21:08:28;10.0;;;8.0;;
22673;SDS011;11504;43.334;21.918;2023-03-31T21:13:04;10.0;;;8.0;;
22673;SDS011;11504;43.334;21.918;2023-03-31T21:17:40;9.0;;;8.0;;
22673;SDS011;11504;43.334;21.918;2023-03-31T21:22:17;9.0;;;8.0;;
22673;SDS011;11504;43.334;21.918;2023-03-31T21:26:53;10.0;;;10.0;;
22673;SDS011;11504;43.334;21.918;2023-03-31T21:31:30;10.0;;;10.0;;
22673;SDS011;11504;43.334;21.918;2023-03-31T21:36:13;12.0;;;12.0;;
22673;SDS011;11504;43.334;21.918;2023-03-31T21:41:05;12.0;;;12.0;;
22673;SDS011;11504;43.334;21.918;2023-03-31T21:45:49;10.0;;;10.0;;
22673;SDS011;11504;43.334;21.918;2023-03-31T21:50:33;10.0;;;10.0;;
22673;SDS011;11504;43.334;21.918;2023-03-31T21:55:11;9.0;;;8.0;;
22673;SDS011;11504;43.334;21.918;2023-03-31T21:59:48;9.0;;;8.0;;
22673;SDS011;11504;43.334;21.918;2023-03-31T22:04:24;9.0;;;8.0;;
22673;SDS011;11504;43.334;21.918;2023-03-31T22:09:01;10.0;;;9.0;;
22673;SDS011;11504;43.334;21.918;2023-03-31T22:13:38;10.0;;;9.0;;
22673;SDS011;11504;43.334;21.918;2023-03-31T22:18:16;10.0;;;10.0;;
22673;SDS011;11504;43.334;21.918;2023-03-31T22:22:52;10.0;;;10.0;;
22673;SDS011;11504;43.334;21.918;2023-03-31T22:27:29;10.0;;;10.0;;
22673;SDS011;11504;43.334;21.918;2023-03-31T22:32:05;10.0;;;10.0;;
22673;SDS011;11504;43.334;21.918;2023-03-31T22:36:42;11.0;;;10.0;;
22673;SDS011;11504;43.334;21.918;2023-03-31T22:41:18;11.0;;;10.0;;
22673;SDS011;11504;43.334;21.918;2023-03-31T22:45:54;18.0;;;16.0;;
22673;SDS011;11504;43.334;21.918;2023-03-31T22:50:30;18.0;;;16.0;;
22673;SDS011;11504;43.334;21.918;2023-03-31T22:55:07;26.0;;;22.0;;
22673;SDS011;11504;43.334;21.918;2023-03-31T22:59:44;26.0;;;22.0;;
22673;SDS011;11504;43.334;21.918;2023-03-31T23:04:21;26.0;;;22.0;;
22673;SDS011;11504;43.334;21.918;2023-03-31T23:08:58;24.0;;;22.0;;
22673;SDS011;11504;43.334;21.918;2023-03-31T23:13:34;24.0;;;22.0;;
22673;SDS011;11504;43.334;21.918;2023-03-31T23:18:11;22.0;;;21.0;;
22673;SDS011;11504;43.334;21.918;2023-03-31T23:22:47;22.0;;;21.0;;
22673;SDS011;11504;43.334;21.918;2023-03-31T23:27:24;16.0;;;15.0;;
22673;SDS011;11504;43.334;21.918;2023-03-31T23:32:00;16.0;;;15.0;;
22673;SDS011;11504;43.334;21.918;2023-03-31T23:36:37;9.0;;;9.0;;
22673;SDS011;11504;43.334;21.918;2023-03-31T23:41:14;9.0;;;9.0;;
22673;SDS011;11504;43.334;21.918;2023-03-31T23:45:51;10.0;;;10.0;;
22673;SDS011;11504;43.334;21.918;2023-03-31T23:50:28;10.0;;;10.0;;
22673;SDS011;11504;43.334;21.918;2023-03-31T23:55:05;12.0;;;11.0;;
22673;SDS011;11504;43.334;21.918;2023-03-31T23:59:41;12.0;;;11.0;;
